Decoded Metar for LFOV (LAVAL in FRANCE) (IATA:LVA) | Meteo·Mobile Aviation Weather
aviador You're here:

LFOV Decoded Metar

LAVAL in FRANCE
Report Time2018-12-14 11:30:00
UTC Time2018-12-14 11:54:50
Flight Rules vfr VFR
WindVRB at 02 kt
Visibility9999 m
Phenomena:N/A
Clouds:N/A
Expected CloudBase > 1,600 ft AGL from Temp-Dew spread
CeilingNone
Temp01°C (ISA -13)
Dew Point-3°C (75% RH)
AAT-2.1°C
QNH1021 hPa
Density Alt-1,516 ft
Elevation318 ft
Report Wrong Elevation
Raw Report
METAR LFOV 141130Z AUTO VRB02KT CAVOK 01/M03 Q1021=

Extra information for LFOV:More info

Metar Taf Metar & Taf Last 4 Metars F.Rules Stats Wind Profile Meteogram Temp Stats Airport Information Weather charts Add Link Nearby VenuesMetar ALERT Operation Metar Decoded Social comments